Time;durP1;ratioP1;P1;durP2;ratioP2;P2;SDS_P1;SDS_P2;PMS_P1;PMS_P2;Temp;Humidity;BMP_temperature;BMP_pressure;BME280_temperature;BME280_humidity;BME280_pressure;Samples;Min_cycle;Max_cycle;Signal;HPM_P1;HPM_P2
2022/10/01 00:00:55;;;;;;;12.82;2.60;;;14.90;99.90;;;;;;5016211;28;20434;-62
2022/10/01 00:03:21;;;;;;;9.55;2.45;;;14.90;99.90;;;;;;5033791;28;20088;-62
2022/10/01 00:05:48;;;;;;;9.73;2.72;;;14.90;99.90;;;;;;5016164;28;20064;-63
2022/10/01 00:08:15;;;;;;;9.95;2.40;;;14.90;99.90;;;;;;5033354;28;20069;-62
2022/10/01 00:10:42;;;;;;;11.45;2.30;;;14.90;99.90;;;;;;5033224;28;20065;-64
2022/10/01 00:13:08;;;;;;;10.07;2.30;;;14.90;99.90;;;;;;5033423;28;20038;-61
2022/10/01 00:15:35;;;;;;;12.82;2.08;;;14.80;99.90;;;;;;5033324;28;20053;-64
2022/10/01 00:18:02;;;;;;;9.50;2.25;;;14.80;99.90;;;;;;5033067;28;20557;-65
2022/10/01 00:20:29;;;;;;;8.05;1.80;;;14.80;99.90;;;;;;5033077;28;20088;-62
2022/10/01 00:22:55;;;;;;;12.30;2.50;;;14.80;99.90;;;;;;5033262;28;20095;-63
2022/10/01 00:25:24;;;;;;;11.15;2.45;;;14.80;99.90;;;;;;5015381;28;20096;-61
2022/10/01 00:27:50;;;;;;;11.55;2.17;;;14.80;99.90;;;;;;5033511;28;20061;-62
2022/10/01 00:30:17;;;;;;;10.10;2.35;;;14.80;99.90;;;;;;5033243;28;20033;-63
2022/10/01 00:32:44;;;;;;;10.52;2.33;;;14.80;99.90;;;;;;5034329;28;20069;-61
2022/10/01 00:35:12;;;;;;;13.20;2.53;;;14.80;99.90;;;;;;5036779;28;20429;-61
2022/10/01 00:37:41;;;;;;;11.80;2.15;;;14.70;99.90;;;;;;5036973;28;20128;-64
2022/10/01 00:40:08;;;;;;;7.95;2.38;;;14.70;99.90;;;;;;5037086;28;20049;-63
2022/10/01 00:42:34;;;;;;;12.82;2.70;;;14.70;99.90;;;;;;5034569;28;20149;-64
2022/10/01 00:45:02;;;;;;;14.52;2.40;;;14.70;99.90;;;;;;5014932;28;20055;-65
2022/10/01 00:47:30;;;;;;;15.77;2.58;;;14.70;99.90;;;;;;5033540;28;20476;-64
2022/10/01 00:49:57;;;;;;;9.60;2.58;;;14.70;99.90;;;;;;5022449;28;20042;-62
2022/10/01 00:52:25;;;;;;;14.20;2.90;;;14.70;99.90;;;;;;5007956;28;20169;-63
2022/10/01 00:54:51;;;;;;;15.25;2.60;;;14.70;99.90;;;;;;5023245;28;20044;-64
2022/10/01 01:03:26;;;;;;;10.98;2.83;;;14.60;99.90;;;;;;5016638;28;20053;-65
2022/10/01 01:08:58;;;;;;;17.45;3.55;;;14.60;99.90;;;;;;5016404;28;20100;-63
2022/10/01 01:11:25;;;;;;;10.50;2.65;;;14.60;99.90;;;;;;5016633;28;20069;-64
2022/10/01 01:13:52;;;;;;;16.45;3.45;;;14.60;99.90;;;;;;5016240;28;20064;-65
2022/10/01 01:16:19;;;;;;;14.75;3.75;;;14.60;99.90;;;;;;5016733;28;20104;-64
2022/10/01 01:18:46;;;;;;;17.27;3.05;;;14.50;99.90;;;;;;5016727;28;20046;-65
2022/10/01 01:21:13;;;;;;;20.92;3.20;;;14.50;99.90;;;;;;5031317;28;20029;-64
2022/10/01 01:23:41;;;;;;;18.50;4.07;;;14.50;99.90;;;;;;5042375;28;20041;-64
2022/10/01 01:26:09;;;;;;;13.82;3.33;;;14.50;99.90;;;;;;5036387;28;20038;-66
2022/10/01 01:28:36;;;;;;;18.25;3.35;;;14.50;99.90;;;;;;5036093;28;20049;-63
2022/10/01 01:31:02;;;;;;;17.38;3.50;;;14.50;99.90;;;;;;5035678;28;20041;-65
2022/10/01 01:33:29;;;;;;;17.00;3.33;;;14.50;99.90;;;;;;5035633;28;20128;-63
2022/10/01 01:35:56;;;;;;;18.42;3.85;;;14.50;99.90;;;;;;5035647;28;20041;-63
2022/10/01 01:38:24;;;;;;;17.60;2.85;;;14.50;99.90;;;;;;5018093;28;20512;-63
2022/10/01 01:40:50;;;;;;;14.45;3.40;;;14.50;99.90;;;;;;5036119;28;20048;-63
2022/10/01 01:43:19;;;;;;;15.48;3.33;;;14.50;99.90;;;;;;5035588;28;20439;-63
2022/10/01 01:45:46;;;;;;;21.88;4.00;;;14.50;99.90;;;;;;5017660;28;20125;-64
2022/10/01 01:48:13;;;;;;;19.25;3.72;;;14.40;99.90;;;;;;5035674;28;20040;-63
2022/10/01 01:50:40;;;;;;;18.75;3.00;;;14.40;99.90;;;;;;5035683;28;20042;-63
2022/10/01 01:53:07;;;;;;;16.65;3.15;;;14.40;99.90;;;;;;5035717;28;20037;-64
2022/10/01 01:55:34;;;;;;;16.23;3.38;;;14.40;99.90;;;;;;5035604;28;20472;-63
2022/10/01 01:58:01;;;;;;;16.38;3.03;;;14.40;99.90;;;;;;5032223;28;20060;-63
2022/10/01 02:00:28;;;;;;;23.33;4.43;;;14.40;99.90;;;;;;5015553;28;20100;-65
2022/10/01 02:02:55;;;;;;;21.25;4.15;;;14.30;99.90;;;;;;5015557;28;20421;-63
2022/10/01 02:05:22;;;;;;;17.50;3.80;;;14.30;99.90;;;;;;5015545;28;20425;-64
2022/10/01 02:07:51;;;;;;;19.20;3.88;;;14.30;99.90;;;;;;5015610;28;20046;-62
2022/10/01 02:10:17;;;;;;;16.80;3.20;;;14.30;99.90;;;;;;5014526;28;20384;-65
2022/10/01 02:12:44;;;;;;;16.15;3.20;;;14.30;99.90;;;;;;5014546;28;20424;-63
2022/10/01 02:15:11;;;;;;;21.98;3.42;;;14.30;99.90;;;;;;5014839;28;20066;-64
2022/10/01 02:17:38;;;;;;;18.05;3.80;;;14.20;99.90;;;;;;5014049;28;20052;-63
2022/10/01 02:20:04;;;;;;;18.40;3.67;;;14.20;99.90;;;;;;5015332;28;20056;-64
2022/10/01 02:22:31;;;;;;;18.60;3.45;;;14.20;99.90;;;;;;5014980;28;20062;-66
2022/10/01 02:24:58;;;;;;;20.52;4.15;;;14.20;99.90;;;;;;5014187;28;20096;-66
2022/10/01 02:27:25;;;;;;;19.10;3.72;;;14.20;99.90;;;;;;5015460;28;20369;-63
2022/10/01 02:29:51;;;;;;;17.50;4.13;;;14.10;99.90;;;;;;5014879;28;20096;-65
2022/10/01 02:32:18;;;;;;;20.20;3.97;;;14.10;99.90;;;;;;5015010;28;20046;-61
2022/10/01 02:34:45;;;;;;;20.40;3.65;;;14.10;99.90;;;;;;5014759;28;20397;-64
2022/10/01 02:37:12;;;;;;;17.90;3.88;;;14.10;99.90;;;;;;5014658;28;20444;-63
2022/10/01 02:39:40;;;;;;;16.63;3.85;;;14.00;99.90;;;;;;5014823;28;20042;-65
2022/10/01 02:42:07;;;;;;;20.17;4.15;;;14.00;99.90;;;;;;5015037;28;20085;-64
2022/10/01 02:44:36;;;;;;;18.48;4.35;;;13.90;99.90;;;;;;5014667;28;20042;-65
2022/10/01 02:47:06;;;;;;;19.98;4.30;;;13.90;99.90;;;;;;5014478;28;20049;-64
2022/10/01 02:49:33;;;;;;;19.05;4.15;;;13.90;99.90;;;;;;5015035;28;20030;-63
2022/10/01 02:52:00;;;;;;;21.42;3.72;;;13.80;99.90;;;;;;5014459;28;20042;-63
2022/10/01 02:54:26;;;;;;;18.38;3.38;;;13.80;99.90;;;;;;5014926;28;20065;-61
2022/10/01 02:59:39;;;;;;;19.58;3.83;;;13.80;99.90;;;;;;5031253;28;20053;-63
2022/10/01 03:02:05;;;;;;;24.30;3.83;;;13.80;99.90;;;;;;5034449;28;20095;-65
2022/10/01 03:04:32;;;;;;;25.25;4.07;;;13.70;99.90;;;;;;5033999;28;20047;-64
2022/10/01 03:07:02;;;;;;;23.83;4.13;;;13.70;99.90;;;;;;5034023;28;20061;-64
2022/10/01 03:09:30;;;;;;;25.40;4.53;;;13.70;99.90;;;;;;5034223;28;20152;-64
2022/10/01 03:11:56;;;;;;;23.30;4.45;;;13.60;99.90;;;;;;5034033;28;20045;-64
2022/10/01 03:14:23;;;;;;;22.75;4.20;;;13.60;99.90;;;;;;5034018;28;20041;-64
2022/10/01 03:16:50;;;;;;;22.45;4.72;;;13.60;99.90;;;;;;5034112;28;20053;-63
2022/10/01 03:19:17;;;;;;;19.60;4.03;;;13.50;99.90;;;;;;5034297;28;20049;-63
2022/10/01 03:21:43;;;;;;;25.60;4.47;;;13.60;99.90;;;;;;5033563;28;20095;-64
2022/10/01 03:24:10;;;;;;;23.02;4.05;;;13.50;99.90;;;;;;5033919;28;20046;-61
2022/10/01 03:26:37;;;;;;;18.80;4.40;;;13.50;99.90;;;;;;5033509;28;20046;-62
2022/10/01 03:29:05;;;;;;;23.35;4.75;;;13.50;99.90;;;;;;5033798;28;20120;-63
2022/10/01 03:31:31;;;;;;;25.17;5.53;;;13.50;99.90;;;;;;5016268;28;20091;-62
2022/10/01 03:33:59;;;;;;;25.33;4.70;;;13.50;99.90;;;;;;5033394;28;20168;-65
2022/10/01 03:36:26;;;;;;;25.23;4.85;;;13.50;99.90;;;;;;5033527;28;20037;-63
2022/10/01 03:38:53;;;;;;;24.05;4.63;;;13.50;99.90;;;;;;5034007;28;20068;-63
2022/10/01 03:41:19;;;;;;;23.20;4.72;;;13.40;99.90;;;;;;5033397;28;20041;-63
2022/10/01 03:43:46;;;;;;;28.27;4.45;;;13.40;99.90;;;;;;5033931;28;20041;-64
2022/10/01 03:46:13;;;;;;;25.20;5.15;;;13.40;99.90;;;;;;5033681;28;20033;-63
2022/10/01 03:48:40;;;;;;;23.85;4.32;;;13.40;99.90;;;;;;5034007;28;20068;-64
2022/10/01 03:51:07;;;;;;;20.05;4.05;;;13.30;99.90;;;;;;5033284;28;20048;-63
2022/10/01 03:53:33;;;;;;;27.73;4.18;;;13.30;99.90;;;;;;5033263;28;20045;-64
2022/10/01 03:56:00;;;;;;;29.10;5.03;;;13.30;99.90;;;;;;5033869;28;20045;-64
2022/10/01 03:58:27;;;;;;;24.10;4.50;;;13.30;99.90;;;;;;5033429;28;20112;-63
2022/10/01 04:00:54;;;;;;;23.05;4.22;;;13.30;99.90;;;;;;5034057;28;20042;-63
2022/10/01 04:03:21;;;;;;;21.98;3.63;;;13.30;99.90;;;;;;5033350;28;20038;-63
2022/10/01 04:05:48;;;;;;;21.15;3.83;;;13.30;99.90;;;;;;5016438;28;20087;-64
2022/10/01 04:08:15;;;;;;;21.30;3.83;;;13.20;99.90;;;;;;5035603;28;20045;-64
2022/10/01 04:10:47;;;;;;;20.70;3.95;;;13.20;99.90;;;;;;5037165;28;20041;-64
2022/10/01 04:13:14;;;;;;;21.88;3.88;;;13.20;99.90;;;;;;5019542;28;20045;-67
2022/10/01 04:15:40;;;;;;;23.25;4.47;;;13.20;99.90;;;;;;5036893;28;20045;-65
2022/10/01 04:18:07;;;;;;;17.38;4.00;;;13.10;99.90;;;;;;5038066;28;20049;-66
2022/10/01 04:20:34;;;;;;;17.98;3.85;;;13.10;99.90;;;;;;5037278;28;20099;-67
2022/10/01 04:23:00;;;;;;;17.92;4.30;;;13.10;99.90;;;;;;5037030;28;20076;-65
2022/10/01 04:25:27;;;;;;;19.35;4.10;;;13.10;99.90;;;;;;5019037;28;20056;-64
2022/10/01 04:27:54;;;;;;;22.98;4.18;;;13.10;99.90;;;;;;5036771;28;20048;-68
2022/10/01 04:30:21;;;;;;;17.40;3.40;;;13.10;99.90;;;;;;5036728;28;20095;-66
2022/10/01 04:32:48;;;;;;;22.38;4.03;;;13.10;99.90;;;;;;5036895;28;20046;-66
2022/10/01 04:35:15;;;;;;;21.95;3.95;;;13.10;99.90;;;;;;5037427;28;20049;-68
2022/10/01 04:37:42;;;;;;;21.17;4.00;;;13.00;99.90;;;;;;5036802;28;20045;-69
2022/10/01 04:40:09;;;;;;;23.08;4.43;;;13.00;99.90;;;;;;5037076;28;20115;-66
2022/10/01 04:42:36;;;;;;;26.45;4.22;;;13.00;99.90;;;;;;5036930;28;20046;-66
2022/10/01 04:45:03;;;;;;;27.88;4.32;;;13.00;99.90;;;;;;5036644;28;20091;-64
2022/10/01 04:47:30;;;;;;;22.08;4.53;;;13.00;99.90;;;;;;5036609;28;20044;-65
2022/10/01 04:50:02;;;;;;;22.15;3.67;;;12.90;99.90;;;;;;5036522;28;20099;-63
2022/10/01 04:52:29;;;;;;;22.25;4.00;;;12.90;99.90;;;;;;5036669;28;20048;-66
2022/10/01 04:54:56;;;;;;;22.38;3.78;;;12.90;99.90;;;;;;5036554;28;20046;-67
2022/10/01 04:57:23;;;;;;;27.13;3.75;;;12.90;99.90;;;;;;5036581;28;20389;-64
2022/10/01 04:59:50;;;;;;;26.42;3.83;;;12.90;99.90;;;;;;5035636;28;20048;-64
2022/10/01 05:02:16;;;;;;;20.88;4.18;;;12.90;99.90;;;;;;5035173;28;20091;-64
2022/10/01 05:04:43;;;;;;;24.90;4.40;;;12.90;99.90;;;;;;5036585;28;20053;-63
2022/10/01 05:07:10;;;;;;;26.05;4.05;;;12.80;99.90;;;;;;5036767;28;20417;-63
2022/10/01 05:09:37;;;;;;;24.08;4.35;;;12.80;99.90;;;;;;5036525;28;20084;-64
2022/10/01 05:12:04;;;;;;;23.13;3.60;;;12.80;99.90;;;;;;5036461;28;20045;-66
2022/10/01 05:14:31;;;;;;;25.08;4.20;;;12.80;99.90;;;;;;5036331;28;20072;-66
2022/10/01 05:16:57;;;;;;;29.25;4.60;;;12.80;99.90;;;;;;5035873;28;20060;-63
2022/10/01 05:19:27;;;;;;;23.58;4.00;;;12.80;99.90;;;;;;5035822;28;20068;-64
2022/10/01 05:21:54;;;;;;;28.60;4.32;;;12.80;99.90;;;;;;5035916;28;20038;-63
2022/10/01 05:24:21;;;;;;;25.95;4.65;;;12.80;99.90;;;;;;5035856;28;20045;-65
2022/10/01 05:26:48;;;;;;;30.30;4.35;;;12.80;99.90;;;;;;5036105;28;20481;-64
2022/10/01 05:29:14;;;;;;;28.40;4.72;;;12.70;99.90;;;;;;5036054;28;20061;-64
2022/10/01 05:31:43;;;;;;;25.42;4.35;;;12.70;99.90;;;;;;5034505;28;20042;-64
2022/10/01 05:34:10;;;;;;;25.48;5.63;;;12.70;99.90;;;;;;5035906;28;20041;-65
2022/10/01 05:36:36;;;;;;;26.20;4.72;;;12.70;99.90;;;;;;5035890;28;20045;-64
2022/10/01 05:39:03;;;;;;;29.52;4.60;;;12.70;99.90;;;;;;5035754;28;20045;-64
2022/10/01 05:41:30;;;;;;;25.55;3.72;;;12.70;99.90;;;;;;5035525;28;20072;-63
2022/10/01 05:43:58;;;;;;;24.15;4.25;;;12.80;99.90;;;;;;5035815;28;20095;-64
2022/10/01 05:46:25;;;;;;;28.77;4.88;;;12.80;99.90;;;;;;5034411;28;20400;-63
2022/10/01 05:48:52;;;;;;;27.23;5.05;;;12.80;99.90;;;;;;5035821;28;20037;-64
2022/10/01 05:51:19;;;;;;;26.30;4.35;;;12.70;99.90;;;;;;5035597;28;20516;-66
2022/10/01 05:53:48;;;;;;;30.08;5.82;;;12.70;99.90;;;;;;5035472;28;20064;-62
2022/10/01 05:56:16;;;;;;;26.00;4.40;;;12.70;99.90;;;;;;5035837;28;20101;-64
2022/10/01 05:58:43;;;;;;;27.85;5.25;;;12.70;99.90;;;;;;5034016;28;20049;-63
2022/10/01 06:01:09;;;;;;;26.10;4.97;;;12.70;99.90;;;;;;5035759;28;20380;-63
2022/10/01 06:03:37;;;;;;;33.97;4.50;;;12.70;99.90;;;;;;5035122;28;20116;-63
2022/10/01 06:06:04;;;;;;;26.45;5.13;;;12.70;99.90;;;;;;5018131;28;20496;-66
2022/10/01 06:08:31;;;;;;;24.35;4.78;;;12.70;99.90;;;;;;5035422;28;20041;-64
2022/10/01 06:10:58;;;;;;;23.75;4.28;;;12.70;99.90;;;;;;5035157;28;20041;-63
2022/10/01 06:13:25;;;;;;;21.42;4.38;;;12.70;99.90;;;;;;5034990;28;20041;-65
2022/10/01 06:15:52;;;;;;;23.02;4.55;;;12.70;99.90;;;;;;5035120;28;20050;-61
2022/10/01 06:18:18;;;;;;;29.90;4.68;;;12.70;99.90;;;;;;5035302;28;20049;-62
2022/10/01 06:20:45;;;;;;;29.08;4.78;;;12.70;99.90;;;;;;5034745;28;20048;-65
2022/10/01 06:23:12;;;;;;;33.05;4.93;;;12.70;99.90;;;;;;5034695;28;20041;-64
2022/10/01 06:25:39;;;;;;;26.00;5.00;;;12.70;99.90;;;;;;5034755;28;20049;-63
2022/10/01 06:28:06;;;;;;;22.85;3.92;;;12.70;99.90;;;;;;5034676;28;20041;-62
2022/10/01 06:30:32;;;;;;;24.33;3.90;;;12.70;99.90;;;;;;5033960;28;20045;-63
2022/10/01 06:33:01;;;;;;;28.23;4.85;;;12.70;99.90;;;;;;5033599;28;20055;-64
2022/10/01 06:35:28;;;;;;;26.27;4.63;;;12.70;99.90;;;;;;5034582;28;20112;-62
2022/10/01 06:37:55;;;;;;;20.15;4.32;;;12.70;99.90;;;;;;5034806;28;20041;-64
2022/10/01 06:40:22;;;;;;;26.50;4.30;;;12.70;99.90;;;;;;5034412;28;20049;-63
2022/10/01 06:42:48;;;;;;;26.45;4.70;;;12.70;99.90;;;;;;5034424;28;20041;-64
2022/10/01 06:45:22;;;;;;;29.90;5.28;;;12.80;99.90;;;;;;5034236;28;20045;-62
2022/10/01 06:47:48;;;;;;;19.38;3.33;;;12.80;99.90;;;;;;5033010;28;20580;-63
2022/10/01 06:50:15;;;;;;;22.58;4.78;;;12.80;99.90;;;;;;5034349;28;20436;-63
2022/10/01 06:52:48;;;;;;;27.15;4.28;;;12.80;99.90;;;;;;5034333;28;20469;-62
2022/10/01 06:55:15;;;;;;;28.00;4.15;;;12.90;99.90;;;;;;5034408;28;20033;-63
2022/10/01 06:57:42;;;;;;;25.75;4.50;;;12.90;99.90;;;;;;5034302;28;20049;-63
2022/10/01 07:00:10;;;;;;;24.98;4.07;;;12.90;99.90;;;;;;5016905;28;20469;-63
2022/10/01 07:02:37;;;;;;;22.33;4.78;;;12.90;99.90;;;;;;5014794;28;20042;-61
2022/10/01 07:05:04;;;;;;;22.65;4.00;;;12.90;99.90;;;;;;5014329;28;20053;-63
2022/10/01 07:07:30;;;;;;;28.08;4.90;;;12.90;99.90;;;;;;5014420;28;20449;-61
2022/10/01 07:09:57;;;;;;;25.33;4.60;;;13.00;99.90;;;;;;5014272;28;20104;-62
2022/10/01 07:12:24;;;;;;;23.92;4.35;;;12.90;99.90;;;;;;5014749;28;20354;-64
2022/10/01 07:14:51;;;;;;;26.42;5.05;;;13.00;99.90;;;;;;5013997;28;20064;-63
2022/10/01 07:17:18;;;;;;;22.35;4.57;;;13.00;99.90;;;;;;5013156;28;20568;-63
2022/10/01 07:19:44;;;;;;;25.98;4.75;;;13.00;99.90;;;;;;5013387;28;20438;-66
2022/10/01 07:22:11;;;;;;;24.27;4.40;;;13.10;99.90;;;;;;5012262;28;20045;-62
2022/10/01 07:24:38;;;;;;;24.25;4.40;;;13.10;99.90;;;;;;5013322;28;20044;-65
2022/10/01 07:27:05;;;;;;;25.65;4.22;;;13.10;99.90;;;;;;5011831;28;20065;-66
2022/10/01 07:29:33;;;;;;;25.42;4.32;;;13.20;99.90;;;;;;5013003;28;20046;-65
2022/10/01 07:32:00;;;;;;;23.95;4.40;;;13.20;99.90;;;;;;5012274;28;20257;-65
2022/10/01 07:34:26;;;;;;;21.02;3.75;;;13.20;99.90;;;;;;5012958;28;20470;-65
2022/10/01 07:36:55;;;;;;;24.35;3.92;;;13.30;99.90;;;;;;5013441;28;20070;-65
2022/10/01 07:39:21;;;;;;;21.70;3.88;;;13.30;99.90;;;;;;5013583;28;20084;-64
2022/10/01 07:41:50;;;;;;;26.77;5.05;;;13.30;99.90;;;;;;4995683;28;20038;-65
2022/10/01 07:44:17;;;;;;;24.30;4.43;;;13.40;99.90;;;;;;5012748;28;20042;-65
2022/10/01 07:46:44;;;;;;;23.75;4.65;;;13.40;99.90;;;;;;5012882;28;20065;-64
2022/10/01 07:49:10;;;;;;;20.25;3.72;;;13.40;99.90;;;;;;5013334;28;20042;-65
2022/10/01 07:51:37;;;;;;;30.50;4.18;;;13.50;99.90;;;;;;5013139;28;20034;-64
2022/10/01 07:54:04;;;;;;;29.55;4.63;;;13.50;99.90;;;;;;5012728;28;20116;-64
2022/10/01 07:56:31;;;;;;;27.83;4.78;;;13.50;99.90;;;;;;5013267;28;20370;-63
2022/10/01 07:58:58;;;;;;;24.52;4.82;;;13.50;99.90;;;;;;5013344;28;20042;-63
2022/10/01 08:01:24;;;;;;;22.23;3.88;;;13.60;99.90;;;;;;5011686;28;20477;-64
2022/10/01 08:03:51;;;;;;;24.98;4.63;;;13.60;99.90;;;;;;5012916;28;20066;-62
2022/10/01 08:06:18;;;;;;;20.58;4.95;;;13.60;99.90;;;;;;5013051;28;20100;-63
2022/10/01 08:08:51;;;;;;;24.05;4.25;;;13.60;99.90;;;;;;5011851;28;20496;-63
2022/10/01 08:11:17;;;;;;;22.70;3.83;;;13.70;99.90;;;;;;5013209;28;20045;-69
2022/10/01 08:13:44;;;;;;;23.50;4.43;;;13.70;99.90;;;;;;5012448;28;20048;-64
2022/10/01 08:16:11;;;;;;;22.92;4.45;;;13.70;99.90;;;;;;4972120;28;1167349;-63
2022/10/01 08:18:41;;;;;;;21.08;4.00;;;13.80;99.90;;;;;;5013765;28;20049;-65
2022/10/01 08:21:08;;;;;;;21.13;4.55;;;13.80;99.90;;;;;;5013411;28;20112;-63
2022/10/01 08:23:35;;;;;;;24.63;3.97;;;13.80;99.90;;;;;;5013213;28;20046;-62
2022/10/01 08:26:01;;;;;;;16.63;4.13;;;13.90;99.90;;;;;;5013321;28;20096;-61
2022/10/01 08:28:28;;;;;;;21.77;4.10;;;13.90;99.90;;;;;;5013423;28;20046;-64
2022/10/01 08:30:56;;;;;;;20.08;3.85;;;14.00;99.90;;;;;;5013566;28;20044;-61
2022/10/01 08:33:22;;;;;;;19.85;3.80;;;14.00;99.90;;;;;;5013231;28;20536;-62
2022/10/01 08:35:49;;;;;;;19.40;4.03;;;14.00;99.90;;;;;;5013694;28;20370;-64
2022/10/01 08:38:18;;;;;;;15.30;3.53;;;14.10;99.90;;;;;;5011852;28;20042;-63
2022/10/01 08:40:46;;;;;;;19.30;3.95;;;14.20;99.90;;;;;;5012174;28;20501;-63
2022/10/01 08:43:13;;;;;;;19.02;3.85;;;14.20;99.90;;;;;;5013141;28;20065;-64
2022/10/01 08:45:42;;;;;;;18.92;3.80;;;14.20;99.90;;;;;;5013207;28;20049;-64
2022/10/01 08:48:08;;;;;;;18.73;3.70;;;14.20;99.90;;;;;;5013710;28;20088;-63
2022/10/01 08:50:35;;;;;;;17.10;3.83;;;14.20;99.90;;;;;;5013146;28;20038;-61
2022/10/01 08:53:02;;;;;;;23.38;4.05;;;14.20;99.90;;;;;;5013272;28;20065;-64
2022/10/01 08:55:34;;;;;;;18.80;4.00;;;14.20;99.90;;;;;;5016575;28;20053;-64
2022/10/01 08:58:01;;;;;;;17.13;3.90;;;14.20;99.90;;;;;;5017246;28;20041;-63
2022/10/01 09:00:28;;;;;;;20.63;4.43;;;14.30;99.90;;;;;;5033538;28;20037;-63
2022/10/01 09:02:56;;;;;;;20.48;3.78;;;14.30;99.90;;;;;;5036453;28;20374;-63
2022/10/01 09:05:23;;;;;;;17.35;3.50;;;14.40;99.90;;;;;;5039258;28;20128;-61
2022/10/01 09:07:50;;;;;;;17.65;3.42;;;14.50;99.90;;;;;;5037732;28;20044;-63
2022/10/01 09:10:17;;;;;;;16.17;3.55;;;14.50;99.90;;;;;;5036898;28;20489;-63
2022/10/01 09:12:43;;;;;;;20.42;3.60;;;14.50;99.90;;;;;;5036210;28;20477;-62
2022/10/01 09:15:10;;;;;;;15.75;3.33;;;14.50;99.90;;;;;;5035729;28;20408;-63
2022/10/01 09:17:37;;;;;;;18.73;3.00;;;14.50;99.90;;;;;;5036204;28;20046;-63
2022/10/01 09:20:04;;;;;;;16.27;3.45;;;14.60;99.90;;;;;;5035635;28;20405;-63
2022/10/01 09:22:31;;;;;;;16.45;3.30;;;14.70;99.90;;;;;;5027832;28;20571;-64
2022/10/01 09:24:57;;;;;;;16.23;3.50;;;14.70;99.90;;;;;;5052689;28;20056;-62
2022/10/01 09:27:24;;;;;;;15.52;2.85;;;14.80;99.90;;;;;;5042733;28;20046;-62
2022/10/01 09:29:51;;;;;;;16.23;3.22;;;14.90;99.90;;;;;;5036043;28;20037;-62
2022/10/01 09:32:18;;;;;;;15.15;3.05;;;14.90;99.90;;;;;;5035978;28;20037;-63
2022/10/01 09:34:45;;;;;;;16.75;3.50;;;15.00;99.90;;;;;;5035944;28;20095;-62
2022/10/01 09:37:13;;;;;;;16.17;3.72;;;15.10;99.90;;;;;;5035770;28;20068;-65
2022/10/01 09:39:40;;;;;;;11.82;2.63;;;15.10;99.90;;;;;;5035780;28;20120;-63
2022/10/01 09:42:07;;;;;;;11.38;2.92;;;15.20;99.90;;;;;;5035719;28;20037;-61
2022/10/01 09:44:34;;;;;;;14.65;2.92;;;15.30;99.90;;;;;;5035788;28;20037;-62
2022/10/01 09:47:01;;;;;;;14.77;3.45;;;15.40;99.90;;;;;;5035880;28;20132;-61
2022/10/01 09:49:29;;;;;;;12.70;2.75;;;15.40;99.90;;;;;;5035760;28;20477;-62
2022/10/01 09:51:55;;;;;;;15.38;3.25;;;15.50;99.90;;;;;;5035842;28;20045;-62
2022/10/01 09:54:22;;;;;;;14.93;3.10;;;15.40;99.90;;;;;;5010789;28;20050;-65
2022/10/01 09:56:49;;;;;;;15.77;3.00;;;15.40;99.90;;;;;;5042277;28;20396;-63
2022/10/01 09:59:16;;;;;;;15.02;3.33;;;15.40;99.90;;;;;;5035536;28;20392;-63
2022/10/01 10:01:43;;;;;;;12.60;2.42;;;15.30;99.90;;;;;;5035554;28;20558;-63
2022/10/01 10:04:10;;;;;;;13.68;3.10;;;15.40;99.90;;;;;;5014563;28;20553;-62
2022/10/01 10:06:37;;;;;;;17.35;3.40;;;15.40;99.90;;;;;;5016955;28;20370;-62
2022/10/01 10:09:04;;;;;;;14.43;2.70;;;15.50;99.90;;;;;;5035188;28;20512;-63
2022/10/01 10:11:31;;;;;;;13.05;3.00;;;15.60;99.90;;;;;;5016756;28;20439;-63
2022/10/01 10:14:02;;;;;;;15.70;2.95;;;15.60;99.90;;;;;;5035311;28;20602;-63
2022/10/01 10:16:29;;;;;;;15.05;3.10;;;15.60;99.90;;;;;;5034489;28;20100;-63
2022/10/01 10:18:56;;;;;;;12.60;2.78;;;15.60;99.90;;;;;;5035094;28;20103;-61
2022/10/01 10:21:24;;;;;;;14.68;3.40;;;15.60;99.90;;;;;;5035238;28;20045;-61
2022/10/01 10:23:51;;;;;;;17.05;2.95;;;15.70;99.90;;;;;;5034808;28;20049;-62
2022/10/01 10:26:19;;;;;;;15.40;3.67;;;15.70;99.90;;;;;;5034975;28;20045;-62
2022/10/01 10:28:46;;;;;;;17.15;3.25;;;15.70;99.90;;;;;;5034900;28;20505;-63
2022/10/01 10:31:14;;;;;;;11.63;3.20;;;15.80;99.90;;;;;;5034663;28;20041;-62
2022/10/01 10:33:41;;;;;;;10.48;2.20;;;15.80;99.90;;;;;;5034613;28;20560;-62
2022/10/01 10:36:08;;;;;;;14.20;3.00;;;15.80;99.90;;;;;;5034585;28;20038;-62
2022/10/01 10:38:35;;;;;;;14.32;3.22;;;15.90;99.90;;;;;;5034838;28;20049;-64
2022/10/01 10:41:02;;;;;;;10.75;2.80;;;15.90;99.90;;;;;;5034702;28;20451;-63
2022/10/01 10:43:30;;;;;;;15.10;3.38;;;15.90;99.90;;;;;;5034290;28;20543;-62
2022/10/01 10:45:56;;;;;;;11.13;2.60;;;15.90;99.90;;;;;;5034473;28;20084;-62
2022/10/01 10:48:23;;;;;;;10.65;2.53;;;15.90;99.90;;;;;;5034475;28;20049;-65
2022/10/01 10:50:50;;;;;;;9.60;2.47;;;16.00;99.90;;;;;;5034561;28;20037;-64
2022/10/01 10:53:18;;;;;;;13.02;3.28;;;16.10;99.90;;;;;;5026266;28;20068;-62
2022/10/01 10:55:45;;;;;;;15.05;2.88;;;16.10;99.90;;;;;;5016854;28;20038;-64
2022/10/01 10:58:12;;;;;;;12.98;2.78;;;16.20;99.90;;;;;;5016813;28;20491;-64
2022/10/01 11:00:39;;;;;;;16.08;2.78;;;16.20;99.90;;;;;;5040807;28;20107;-61
2022/10/01 11:03:05;;;;;;;17.67;3.08;;;16.20;99.90;;;;;;5051973;28;20052;-62
2022/10/01 11:05:32;;;;;;;13.90;2.97;;;16.30;99.90;;;;;;5038056;28;20052;-62
2022/10/01 11:07:59;;;;;;;14.30;2.33;;;16.30;99.90;;;;;;5034503;28;20065;-62
2022/10/01 11:10:25;;;;;;;14.13;2.72;;;16.30;99.90;;;;;;5034072;28;20048;-62
2022/10/01 11:12:55;;;;;;;10.80;2.90;;;16.40;99.90;;;;;;5034141;28;20087;-63
2022/10/01 11:15:22;;;;;;;9.35;2.50;;;16.40;99.90;;;;;;5033251;28;20029;-64
2022/10/01 11:17:49;;;;;;;18.95;3.45;;;16.50;99.90;;;;;;5033526;28;20115;-62
2022/10/01 11:20:15;;;;;;;13.23;3.10;;;16.50;99.90;;;;;;5052823;28;20095;-61
2022/10/01 11:22:46;;;;;;;13.75;3.17;;;16.60;99.90;;;;;;5053153;28;20488;-62
2022/10/01 11:25:13;;;;;;;14.00;3.10;;;16.70;99.90;;;;;;5035037;28;20076;-61
2022/10/01 11:27:41;;;;;;;13.27;3.35;;;16.80;99.90;;;;;;5053087;28;20520;-61
2022/10/01 11:30:08;;;;;;;12.27;2.50;;;16.80;99.90;;;;;;5052855;28;20041;-62
2022/10/01 11:32:35;;;;;;;9.32;2.47;;;16.90;99.90;;;;;;5052943;28;20040;-62
2022/10/01 11:35:02;;;;;;;11.52;2.70;;;17.00;99.90;;;;;;5052894;28;20045;-62
2022/10/01 11:37:29;;;;;;;15.00;3.15;;;17.00;99.50;;;;;;5035362;28;20427;-62
2022/10/01 11:39:56;;;;;;;11.30;2.47;;;17.00;99.10;;;;;;5006950;28;20382;-62
2022/10/01 11:42:23;;;;;;;13.38;2.67;;;17.10;99.20;;;;;;5033610;28;20047;-61
2022/10/01 11:44:50;;;;;;;13.38;2.65;;;17.20;99.10;;;;;;5033345;28;20042;-61
2022/10/01 11:47:19;;;;;;;13.70;3.03;;;17.20;99.20;;;;;;5033640;28;20119;-61
2022/10/01 11:49:46;;;;;;;10.20;2.90;;;17.20;98.80;;;;;;5032764;28;20049;-63
2022/10/01 11:52:13;;;;;;;9.73;2.80;;;17.20;98.90;;;;;;5033488;28;20091;-62
2022/10/01 11:54:40;;;;;;;13.75;2.70;;;17.30;98.80;;;;;;5033297;28;20038;-61
2022/10/01 11:59:52;;;;;;;11.18;2.60;;;17.40;98.50;;;;;;5033013;28;20038;-63
2022/10/01 12:02:19;;;;;;;13.75;3.03;;;17.30;98.20;;;;;;5033362;28;20037;-64
2022/10/01 12:04:45;;;;;;;11.00;2.75;;;17.30;98.90;;;;;;5032706;28;20037;-66
2022/10/01 12:07:12;;;;;;;15.18;3.20;;;17.30;98.70;;;;;;5033694;28;20093;-63
2022/10/01 12:09:39;;;;;;;13.20;2.70;;;17.20;98.40;;;;;;5015903;28;20405;-63
2022/10/01 12:12:06;;;;;;;12.73;2.72;;;17.20;98.30;;;;;;5032985;28;20042;-62
2022/10/01 12:14:32;;;;;;;15.50;2.80;;;17.20;98.00;;;;;;5027280;28;20041;-64
2022/10/01 12:16:59;;;;;;;15.95;2.83;;;17.20;98.30;;;;;;5038620;28;20477;-62
2022/10/01 12:19:26;;;;;;;13.60;2.95;;;17.20;98.30;;;;;;5033379;28;20042;-62
2022/10/01 12:21:53;;;;;;;15.13;3.00;;;17.20;98.60;;;;;;5033438;28;20083;-63
2022/10/01 12:24:20;;;;;;;13.35;3.22;;;17.20;98.70;;;;;;5033502;28;20049;-62
2022/10/01 12:26:46;;;;;;;12.75;3.03;;;17.20;98.80;;;;;;5033315;28;20045;-62
2022/10/01 12:29:13;;;;;;;15.07;2.97;;;17.20;99.10;;;;;;5035300;28;20041;-64
2022/10/01 12:31:40;;;;;;;13.65;2.95;;;17.20;98.90;;;;;;5019572;28;20041;-63
2022/10/01 12:34:07;;;;;;;13.70;2.90;;;17.20;98.90;;;;;;5037201;28;20099;-62
2022/10/01 12:36:35;;;;;;;9.32;2.33;;;17.30;98.40;;;;;;5037063;28;20041;-65
2022/10/01 12:39:02;;;;;;;11.85;2.88;;;17.30;98.50;;;;;;5037135;28;20111;-64
2022/10/01 12:41:29;;;;;;;10.55;2.85;;;17.20;98.80;;;;;;5036967;28;20037;-63
2022/10/01 12:43:56;;;;;;;11.38;3.00;;;17.20;99.00;;;;;;5036878;28;20042;-64
2022/10/01 12:46:24;;;;;;;12.68;2.97;;;17.20;99.40;;;;;;5036819;28;20041;-62
2022/10/01 12:48:53;;;;;;;15.23;3.20;;;17.30;98.70;;;;;;5036714;28;20053;-62
2022/10/01 12:51:20;;;;;;;12.73;3.00;;;17.40;98.70;;;;;;5036803;28;20044;-64